createdAt,value
2017-08-02T00:00:27.371Z,33.53
2017-08-02T00:02:54.949Z,27.40
2017-08-02T00:05:22.493Z,30.80
2017-08-02T00:07:50.044Z,29.50
2017-08-02T00:10:17.660Z,34.40
2017-08-02T00:12:45.825Z,29.13
2017-08-02T00:15:13.375Z,32.17
2017-08-02T00:17:40.949Z,29.40
2017-08-02T00:20:08.499Z,30.00
2017-08-02T00:22:36.040Z,28.13
2017-08-02T00:25:03.609Z,33.40
2017-08-02T00:27:31.152Z,33.40
2017-08-02T00:29:58.725Z,34.00
2017-08-02T00:32:26.329Z,30.33
2017-08-02T00:34:53.873Z,31.27
2017-08-02T00:37:21.423Z,37.20
2017-08-02T00:39:48.994Z,31.37
2017-08-02T00:42:16.541Z,30.17
2017-08-02T00:44:44.085Z,35.30
2017-08-02T00:47:11.661Z,29.60
2017-08-02T00:49:39.214Z,34.10
2017-08-02T00:52:06.761Z,27.53
2017-08-02T00:54:34.425Z,25.33
2017-08-02T00:57:01.973Z,19.03
2017-08-02T00:59:29.517Z,21.43
2017-08-02T01:01:57.090Z,20.50
2017-08-02T01:04:24.637Z,16.50
2017-08-02T01:06:52.177Z,20.37
2017-08-02T01:09:19.745Z,15.60
2017-08-02T01:11:47.284Z,23.43
2017-08-02T01:14:15.508Z,16.67
2017-08-02T01:16:43.288Z,22.40
2017-08-02T01:19:10.824Z,22.97
2017-08-02T01:21:39.141Z,17.60
2017-08-02T01:24:06.714Z,18.90
2017-08-02T01:26:34.257Z,18.23
2017-08-02T01:29:01.805Z,15.97
2017-08-02T01:31:29.398Z,20.80
2017-08-02T01:33:56.940Z,16.50
2017-08-02T01:36:24.485Z,15.60
2017-08-02T01:38:52.093Z,18.27
2017-08-02T01:41:19.633Z,24.13
2017-08-02T01:43:47.177Z,21.87
2017-08-02T01:46:14.745Z,18.37
2017-08-02T01:48:42.290Z,20.63
2017-08-02T01:51:09.824Z,21.20
2017-08-02T01:53:37.388Z,18.83
2017-08-02T01:56:04.940Z,18.30
2017-08-02T01:58:32.485Z,18.40
2017-08-02T02:01:00.137Z,21.87
2017-08-02T02:03:27.682Z,22.23
2017-08-02T02:05:55.224Z,17.47
2017-08-02T02:08:22.793Z,17.80
2017-08-02T02:10:50.335Z,20.90
2017-08-02T02:13:17.881Z,20.40
2017-08-02T02:15:45.520Z,18.83
2017-08-02T02:18:13.060Z,22.23
2017-08-02T02:20:40.605Z,19.70
2017-08-02T02:23:08.266Z,18.50
2017-08-02T02:25:35.808Z,18.23
2017-08-02T02:28:03.361Z,21.53
2017-08-02T02:30:30.929Z,19.40
2017-08-02T02:32:58.474Z,22.87
2017-08-02T02:35:26.016Z,27.23
2017-08-02T02:37:53.584Z,20.27
2017-08-02T02:40:21.164Z,25.30
2017-08-02T02:42:48.734Z,20.00
2017-08-02T02:45:16.345Z,18.63
2017-08-02T02:47:43.893Z,23.00
2017-08-02T02:50:12.598Z,25.67
2017-08-02T02:52:40.269Z,34.50
2017-08-02T02:55:07.825Z,22.93
2017-08-02T02:57:35.377Z,27.90
2017-08-02T03:00:02.953Z,18.67
2017-08-02T03:02:30.573Z,15.67
2017-08-02T03:04:58.153Z,20.83
2017-08-02T03:07:25.801Z,17.23
2017-08-02T03:09:53.353Z,13.43
2017-08-02T03:12:20.897Z,19.17
2017-08-02T03:14:48.465Z,20.67
2017-08-02T03:17:16.389Z,9.80
2017-08-02T03:19:43.928Z,8.60
2017-08-02T03:22:11.488Z,8.20
2017-08-02T03:24:39.033Z,11.57
2017-08-02T03:27:06.577Z,6.80
2017-08-02T03:29:34.335Z,12.80
2017-08-02T03:32:01.876Z,9.43
2017-08-02T03:34:29.413Z,6.17
2017-08-02T03:36:57.009Z,10.93
2017-08-02T03:39:24.549Z,10.50
2017-08-02T03:41:52.089Z,8.30
2017-08-02T03:44:19.661Z,10.03
2017-08-02T03:46:47.202Z,8.63
2017-08-02T03:49:14.745Z,6.50
2017-08-02T03:51:42.357Z,8.90
2017-08-02T03:54:09.892Z,10.90
2017-08-02T03:56:37.432Z,6.83
2017-08-02T03:59:04.997Z,8.97
2017-08-02T04:01:32.537Z,6.43
2017-08-02T04:04:00.845Z,7.10
2017-08-02T04:06:28.406Z,7.10
2017-08-02T04:08:55.959Z,9.33
2017-08-02T04:11:23.497Z,8.57
2017-08-02T04:13:51.136Z,9.80
2017-08-02T04:16:18.672Z,8.90
2017-08-02T04:18:46.806Z,9.77
2017-08-02T04:21:14.380Z,6.57
2017-08-02T04:23:41.921Z,6.30
2017-08-02T04:26:09.465Z,9.33
2017-08-02T04:28:37.045Z,6.73
2017-08-02T04:31:04.593Z,11.77
2017-08-02T04:33:32.141Z,9.37
2017-08-02T04:35:59.749Z,16.33
2017-08-02T04:38:27.289Z,7.47
2017-08-02T04:40:54.846Z,12.03
2017-08-02T04:43:22.422Z,9.23
2017-08-02T04:45:49.972Z,6.20
2017-08-02T04:48:17.521Z,6.87
2017-08-02T04:50:45.113Z,9.93
2017-08-02T04:53:12.678Z,5.30
2017-08-02T04:55:40.226Z,4.77
2017-08-02T04:58:07.852Z,4.80
2017-08-02T05:00:35.393Z,5.33
2017-08-02T05:03:02.944Z,7.03
2017-08-02T05:05:30.532Z,5.90
2017-08-02T05:07:58.078Z,6.97
2017-08-02T05:10:25.617Z,6.23
2017-08-02T05:12:53.177Z,6.37
2017-08-02T05:15:20.722Z,6.57
2017-08-02T05:17:48.263Z,6.57
2017-08-02T05:20:16.536Z,12.83
2017-08-02T05:22:44.081Z,15.00
2017-08-02T05:25:11.620Z,8.97
2017-08-02T05:27:39.962Z,9.33
2017-08-02T05:30:07.537Z,9.10
2017-08-02T05:32:35.081Z,10.60
2017-08-02T05:35:02.657Z,10.83
2017-08-02T05:37:30.209Z,12.03
2017-08-02T05:39:57.757Z,13.03
2017-08-02T05:42:25.373Z,12.77
2017-08-02T05:44:53.594Z,13.63
2017-08-02T05:47:21.142Z,12.47
2017-08-02T05:49:48.722Z,15.67
2017-08-02T05:52:16.267Z,12.90
2017-08-02T05:54:43.812Z,11.97
2017-08-02T05:57:11.386Z,11.93
2017-08-02T05:59:38.933Z,13.60
2017-08-02T06:02:06.485Z,14.00
2017-08-02T06:04:34.094Z,12.40
2017-08-02T06:07:01.638Z,10.20
2017-08-02T06:09:29.182Z,11.17
2017-08-02T06:11:56.749Z,11.23
2017-08-02T06:14:24.285Z,9.83
2017-08-02T06:16:51.821Z,7.57
2017-08-02T06:19:19.409Z,6.50
2017-08-02T06:21:47.673Z,6.30
2017-08-02T06:24:15.222Z,6.60
2017-08-02T06:26:42.881Z,8.27
2017-08-02T06:29:10.424Z,7.20
2017-08-02T06:31:37.965Z,5.40
2017-08-02T06:34:05.529Z,4.80
2017-08-02T06:36:33.073Z,5.03
2017-08-02T06:39:00.613Z,5.20
2017-08-02T06:41:28.183Z,5.73
2017-08-02T06:43:55.716Z,3.43
2017-08-02T06:46:23.261Z,3.70
2017-08-02T06:48:51.773Z,3.80
2017-08-02T06:51:19.612Z,3.23
2017-08-02T06:53:47.154Z,6.00
2017-08-02T06:56:14.737Z,5.33
2017-08-02T06:58:42.281Z,2.40
2017-08-02T07:01:09.827Z,6.53
2017-08-02T07:03:37.416Z,8.67
2017-08-02T07:06:04.957Z,2.23
2017-08-02T07:08:32.500Z,5.60
2017-08-02T07:11:00.106Z,2.47
2017-08-02T07:13:27.653Z,2.43
2017-08-02T07:15:55.196Z,4.53
2017-08-02T07:18:23.529Z,2.20
2017-08-02T07:20:51.064Z,2.30
2017-08-02T07:23:18.818Z,2.40
2017-08-02T07:25:46.823Z,2.17
2017-08-02T07:28:14.366Z,2.30
2017-08-02T07:30:41.998Z,2.10
2017-08-02T07:33:09.644Z,2.13
2017-08-02T07:35:37.189Z,2.13
2017-08-02T07:38:04.736Z,2.03
2017-08-02T07:40:32.457Z,2.20
2017-08-02T07:43:00.013Z,2.60
2017-08-02T07:45:27.648Z,3.40
2017-08-02T07:47:55.233Z,2.50
2017-08-02T07:50:23.549Z,2.87
2017-08-02T07:52:52.316Z,3.30
2017-08-02T07:55:20.026Z,2.40
2017-08-02T07:57:47.576Z,2.50
2017-08-02T08:00:15.142Z,6.97
2017-08-02T08:02:42.713Z,3.43
2017-08-02T08:05:10.264Z,3.70
2017-08-02T08:07:37.797Z,3.10
2017-08-02T08:10:05.362Z,4.23
2017-08-02T08:12:32.915Z,3.17
2017-08-02T08:15:00.461Z,2.90
2017-08-02T08:17:28.061Z,2.80
2017-08-02T08:19:55.614Z,3.10
2017-08-02T08:22:23.229Z,3.83
2017-08-02T08:24:51.082Z,4.30
2017-08-02T08:27:18.662Z,4.20
2017-08-02T08:29:47.211Z,4.40
2017-08-02T08:32:14.865Z,5.60
2017-08-02T08:34:42.434Z,8.13
2017-08-02T08:37:10.781Z,5.53
2017-08-02T08:39:38.453Z,4.60
2017-08-02T08:42:06.022Z,4.37
2017-08-02T08:44:33.582Z,4.83
2017-08-02T08:47:01.165Z,6.00
2017-08-02T08:49:28.720Z,4.20
2017-08-02T08:51:57.055Z,5.70
2017-08-02T08:54:24.678Z,5.03
2017-08-02T08:56:52.274Z,3.87
2017-08-02T08:59:23.095Z,4.10
2017-08-02T09:01:50.713Z,7.37
2017-08-02T09:04:18.335Z,4.10
2017-08-02T09:06:46.487Z,6.20
2017-08-02T09:09:14.114Z,4.70
2017-08-02T09:11:41.697Z,8.87
2017-08-02T09:14:09.250Z,4.90
2017-08-02T09:16:37.649Z,5.10
2017-08-02T09:19:05.233Z,6.13
2017-08-02T09:21:32.777Z,5.57
2017-08-02T09:24:00.384Z,7.43
2017-08-02T09:26:28.409Z,7.67
2017-08-02T09:28:55.945Z,8.53
2017-08-02T09:31:23.526Z,10.40
2017-08-02T09:33:51.069Z,7.50
2017-08-02T09:36:18.619Z,11.17
2017-08-02T09:38:46.197Z,9.43
2017-08-02T09:41:13.741Z,8.73
2017-08-02T09:43:41.298Z,8.13
2017-08-02T09:46:09.084Z,7.70
2017-08-02T09:48:36.625Z,7.87
2017-08-02T09:51:04.933Z,7.23
2017-08-02T09:53:32.513Z,11.50
2017-08-02T09:56:00.057Z,8.17
2017-08-02T09:58:27.601Z,6.37
2017-08-02T10:00:55.166Z,6.93
2017-08-02T10:03:22.714Z,6.47
2017-08-02T10:05:50.248Z,6.57
2017-08-02T10:08:18.774Z,6.60
2017-08-02T10:10:46.819Z,7.50
2017-08-02T10:13:14.356Z,6.67
2017-08-02T10:15:41.926Z,7.70
2017-08-02T10:18:09.589Z,6.30
2017-08-02T10:20:37.128Z,10.03
2017-08-02T10:23:04.700Z,7.30
2017-08-02T10:25:32.269Z,9.70
2017-08-02T10:28:00.465Z,10.73
2017-08-02T10:30:28.102Z,9.93
2017-08-02T10:32:56.866Z,10.53
2017-08-02T10:35:24.522Z,10.67
2017-08-02T10:37:52.094Z,10.57
2017-08-02T10:40:19.640Z,11.20
2017-08-02T10:42:47.186Z,12.30
2017-08-02T10:45:14.762Z,12.13
2017-08-02T10:47:42.304Z,12.10
2017-08-02T10:50:09.853Z,13.00
2017-08-02T10:52:39.057Z,14.47
2017-08-02T10:55:06.613Z,9.83
2017-08-02T10:57:34.164Z,8.83
2017-08-02T11:00:01.730Z,10.60
2017-08-02T11:02:29.283Z,12.57
2017-08-02T11:04:56.853Z,11.40
2017-08-02T11:07:24.421Z,11.37
2017-08-02T11:09:52.057Z,13.00
2017-08-02T11:12:19.621Z,13.40
2017-08-02T11:14:47.229Z,15.97
2017-08-02T11:17:16.567Z,14.20
2017-08-02T11:19:44.113Z,16.80
2017-08-02T11:22:11.684Z,13.97
2017-08-02T11:24:40.020Z,15.10
2017-08-02T11:27:07.561Z,10.77
2017-08-02T11:29:36.393Z,12.63
2017-08-02T11:32:03.945Z,14.20
2017-08-02T11:34:31.501Z,14.10
2017-08-02T11:36:59.115Z,13.40
2017-08-02T11:39:26.656Z,12.00
2017-08-02T11:41:54.966Z,14.60
2017-08-02T11:44:22.544Z,12.13
2017-08-02T11:46:50.088Z,11.43
2017-08-02T11:49:17.629Z,10.30
2017-08-02T11:51:45.216Z,12.30
2017-08-02T11:54:12.790Z,12.23
2017-08-02T11:56:40.336Z,10.77
2017-08-02T11:59:07.987Z,11.03
2017-08-02T12:01:35.530Z,14.03
2017-08-02T12:04:03.949Z,12.13
2017-08-02T12:06:31.521Z,11.60
2017-08-02T12:08:59.065Z,11.23
2017-08-02T12:11:26.609Z,9.07
2017-08-02T12:13:54.186Z,16.03
2017-08-02T12:16:21.730Z,9.83
2017-08-02T12:18:49.272Z,10.13
2017-08-02T12:21:17.399Z,9.13
2017-08-02T12:23:44.945Z,14.73
2017-08-02T12:26:12.486Z,11.07
2017-08-02T12:28:40.069Z,15.33
2017-08-02T12:31:09.086Z,8.73
2017-08-02T12:33:37.397Z,12.37
2017-08-02T12:36:04.973Z,11.30
2017-08-02T12:38:32.526Z,14.27
2017-08-02T12:41:00.077Z,13.83
2017-08-02T12:43:27.692Z,11.20
2017-08-02T12:45:55.232Z,9.00
2017-08-02T12:48:22.773Z,13.80
2017-08-02T12:50:50.357Z,9.20
2017-08-02T12:53:17.896Z,8.20
2017-08-02T12:55:45.438Z,8.93
2017-08-02T12:58:13.013Z,9.50
2017-08-02T13:00:40.544Z,7.97
2017-08-02T13:03:08.081Z,8.10
2017-08-02T13:05:35.744Z,11.73
2017-08-02T13:08:03.290Z,9.20
2017-08-02T13:10:31.469Z,13.00
2017-08-02T13:12:59.044Z,10.30
2017-08-02T13:15:26.586Z,9.57
2017-08-02T13:17:54.128Z,9.83
2017-08-02T13:20:21.714Z,15.00
2017-08-02T13:22:49.254Z,9.93
2017-08-02T13:25:16.813Z,14.60
2017-08-02T13:27:44.429Z,8.50
2017-08-02T13:30:11.978Z,10.27
2017-08-02T13:32:40.056Z,9.30
2017-08-02T13:35:07.641Z,11.87
2017-08-02T13:37:35.181Z,7.90
2017-08-02T13:40:02.720Z,7.30
2017-08-02T13:42:30.305Z,10.27
2017-08-02T13:44:57.849Z,14.10
2017-08-02T13:47:25.400Z,15.07
2017-08-02T13:49:53.245Z,11.23
2017-08-02T13:52:20.789Z,8.67
2017-08-02T13:54:48.329Z,9.90
2017-08-02T13:57:15.916Z,10.90
2017-08-02T13:59:43.456Z,8.47
2017-08-02T14:02:11.004Z,12.67
2017-08-02T14:04:38.597Z,13.17
2017-08-02T14:07:06.141Z,12.93
2017-08-02T14:09:33.689Z,11.10
2017-08-02T14:12:01.353Z,10.73
2017-08-02T14:14:28.897Z,10.27
2017-08-02T14:16:56.441Z,11.77
2017-08-02T14:19:24.009Z,9.20
2017-08-02T14:21:51.549Z,9.43
2017-08-02T14:24:19.094Z,11.73
2017-08-02T14:26:46.665Z,11.03
2017-08-02T14:29:14.968Z,7.60
2017-08-02T14:31:42.505Z,9.67
2017-08-02T14:34:11.197Z,13.63
2017-08-02T14:36:38.746Z,11.90
2017-08-02T14:39:06.298Z,9.00
2017-08-02T14:41:33.878Z,12.90
2017-08-02T14:44:01.418Z,9.90
2017-08-02T14:46:28.952Z,11.73
2017-08-02T14:48:56.513Z,16.20
2017-08-02T14:51:24.066Z,13.60
2017-08-02T14:53:51.602Z,10.23
2017-08-02T14:56:19.209Z,9.63
2017-08-02T14:58:46.753Z,13.90
2017-08-02T15:01:15.185Z,11.37
2017-08-02T15:03:42.748Z,11.80
2017-08-02T15:06:10.293Z,10.20
2017-08-02T15:08:37.850Z,18.13
2017-08-02T15:11:05.417Z,10.97
2017-08-02T15:13:32.961Z,11.20
2017-08-02T15:16:01.268Z,11.50
2017-08-02T15:18:29.114Z,13.53
2017-08-02T15:20:57.426Z,10.13
2017-08-02T15:23:24.965Z,13.83
2017-08-02T15:25:52.532Z,14.20
2017-08-02T15:28:20.074Z,10.23
2017-08-02T15:30:47.625Z,20.00
2017-08-02T15:33:15.960Z,10.30
2017-08-02T15:35:43.989Z,9.90
2017-08-02T15:38:11.544Z,13.07
2017-08-02T15:40:39.149Z,10.23
2017-08-02T15:43:06.695Z,12.80
2017-08-02T15:45:34.229Z,9.37
2017-08-02T15:48:01.801Z,16.53
2017-08-02T15:50:29.361Z,12.40
2017-08-02T15:52:56.909Z,15.73
2017-08-02T15:55:24.490Z,14.03
2017-08-02T15:57:52.054Z,14.53
2017-08-02T16:00:19.601Z,11.13
2017-08-02T16:02:47.250Z,13.77
2017-08-02T16:05:14.789Z,9.50
2017-08-02T16:07:43.097Z,16.50
2017-08-02T16:10:10.673Z,14.47
2017-08-02T16:12:38.217Z,10.47
2017-08-02T16:15:06.645Z,16.77
2017-08-02T16:17:34.225Z,12.80
2017-08-02T16:20:02.536Z,13.13
2017-08-02T16:22:30.085Z,11.07
2017-08-02T16:24:58.321Z,10.57
2017-08-02T16:27:25.869Z,12.60
2017-08-02T16:29:53.408Z,10.50
2017-08-02T16:32:20.973Z,13.53
2017-08-02T16:34:48.536Z,13.10
2017-08-02T16:37:16.365Z,10.67
2017-08-02T16:39:43.956Z,23.27
2017-08-02T16:42:11.505Z,14.30
2017-08-02T16:44:39.056Z,14.13
2017-08-02T16:47:06.717Z,13.67
2017-08-02T16:49:34.370Z,15.60
2017-08-02T16:52:01.925Z,12.37
2017-08-02T16:54:29.514Z,14.90
2017-08-02T16:56:57.068Z,19.47
2017-08-02T16:59:24.609Z,15.83
2017-08-02T17:01:52.181Z,12.00
2017-08-02T17:04:19.729Z,12.77
2017-08-02T17:06:47.278Z,13.70
2017-08-02T17:09:14.885Z,15.40
2017-08-02T17:11:42.428Z,13.00
2017-08-02T17:14:09.987Z,11.90
2017-08-02T17:16:37.562Z,15.33
2017-08-02T17:19:05.115Z,14.43
2017-08-02T17:21:32.658Z,14.73
2017-08-02T17:24:00.804Z,12.97
2017-08-02T17:26:29.122Z,15.07
2017-08-02T17:28:56.665Z,15.60
2017-08-02T17:31:24.689Z,19.70
2017-08-02T17:33:52.249Z,14.40
2017-08-02T17:36:19.867Z,15.57
2017-08-02T17:38:48.120Z,15.33
2017-08-02T17:41:17.261Z,22.67
2017-08-02T17:43:44.832Z,18.50
2017-08-02T17:46:12.469Z,13.77
2017-08-02T17:48:40.020Z,12.53
2017-08-02T17:51:07.577Z,16.00
2017-08-02T17:53:35.293Z,18.00
2017-08-02T17:56:02.903Z,19.30
2017-08-02T17:58:30.449Z,14.20
2017-08-02T18:00:58.093Z,18.23
2017-08-02T18:03:25.679Z,15.93
2017-08-02T18:05:53.270Z,13.57
2017-08-02T18:08:20.849Z,20.57
2017-08-02T18:10:49.546Z,22.03
2017-08-02T18:13:17.102Z,20.23
2017-08-02T18:15:45.148Z,17.30
2017-08-02T18:18:12.862Z,26.23
2017-08-02T18:20:41.244Z,15.83
2017-08-02T18:23:09.759Z,22.57
2017-08-02T18:25:37.387Z,15.47
2017-08-02T18:28:05.706Z,20.57
2017-08-02T18:30:33.286Z,21.90
2017-08-02T18:33:00.853Z,14.50
2017-08-02T18:35:28.397Z,15.20
2017-08-02T18:37:56.107Z,17.27
2017-08-02T18:40:24.545Z,14.10
2017-08-02T18:42:52.194Z,15.87
2017-08-02T18:45:19.769Z,23.23
2017-08-02T18:47:47.375Z,16.30
2017-08-02T18:50:14.978Z,15.33
2017-08-02T18:52:42.549Z,21.43
2017-08-02T18:55:10.085Z,17.37
2017-08-02T18:57:37.624Z,15.63
2017-08-02T19:00:05.228Z,16.73
2017-08-02T19:02:32.842Z,26.63
2017-08-02T19:05:00.441Z,22.67
2017-08-02T19:07:28.013Z,20.77
2017-08-02T19:09:55.600Z,24.10
2017-08-02T19:12:23.209Z,20.10
2017-08-02T19:14:50.872Z,20.23
2017-08-02T19:17:18.519Z,23.47
2017-08-02T19:19:46.065Z,20.37
2017-08-02T19:22:14.482Z,22.60
2017-08-02T19:24:42.031Z,28.07
2017-08-02T19:27:09.707Z,17.70
2017-08-02T19:29:37.278Z,26.07
2017-08-02T19:32:04.862Z,28.87
2017-08-02T19:34:32.475Z,22.27
2017-08-02T19:37:00.227Z,21.33
2017-08-02T19:39:27.833Z,19.47
2017-08-02T19:41:55.510Z,31.33
2017-08-02T19:44:23.211Z,30.93
2017-08-02T19:46:50.839Z,29.53
2017-08-02T19:49:18.385Z,32.43
2017-08-02T19:51:45.960Z,24.50
2017-08-02T19:54:14.227Z,33.20
2017-08-02T19:56:41.782Z,19.40
2017-08-02T19:59:09.415Z,25.20
2017-08-02T20:01:36.999Z,26.37
2017-08-02T20:04:04.550Z,34.83
2017-08-02T20:06:32.161Z,26.07
2017-08-02T20:08:59.704Z,21.53
2017-08-02T20:11:27.322Z,18.70
2017-08-02T20:13:54.975Z,17.50
2017-08-02T20:16:22.520Z,23.13
2017-08-02T20:18:50.280Z,26.40
2017-08-02T20:21:17.860Z,14.43
2017-08-02T20:23:45.463Z,15.80
2017-08-02T20:26:13.079Z,17.37
2017-08-02T20:28:40.744Z,18.27
2017-08-02T20:31:08.315Z,15.03
2017-08-02T20:33:35.912Z,16.27
2017-08-02T20:36:03.546Z,14.53
2017-08-02T20:38:36.738Z,20.43
2017-08-02T20:41:04.393Z,23.77
2017-08-02T20:43:32.157Z,17.77
2017-08-02T20:45:59.702Z,16.10
2017-08-02T20:48:27.370Z,23.53
2017-08-02T20:50:55.031Z,22.30
2017-08-02T20:53:22.648Z,19.23
2017-08-02T20:55:50.985Z,17.07
2017-08-02T20:58:18.625Z,18.30
2017-08-02T21:00:46.215Z,25.97
2017-08-02T21:03:13.795Z,21.33
2017-08-02T21:05:41.346Z,28.73
2017-08-02T21:08:08.971Z,19.90
2017-08-02T21:10:37.326Z,22.73
2017-08-02T21:13:04.885Z,17.63
2017-08-02T21:15:32.548Z,16.93
2017-08-02T21:18:00.174Z,20.17
2017-08-02T21:20:27.940Z,16.50
2017-08-02T21:22:55.550Z,14.03
2017-08-02T21:25:23.164Z,16.17
2017-08-02T21:27:50.751Z,24.70
2017-08-02T21:30:18.308Z,17.83
2017-08-02T21:32:45.953Z,16.60
2017-08-02T21:35:13.501Z,16.90
2017-08-02T21:37:41.041Z,16.40
2017-08-02T21:40:08.613Z,18.37
2017-08-02T21:42:36.161Z,19.37
2017-08-02T21:45:03.927Z,16.40
2017-08-02T21:47:31.584Z,14.87
2017-08-02T21:49:59.152Z,13.73
2017-08-02T21:52:26.724Z,23.20
2017-08-02T21:54:54.424Z,20.63
2017-08-02T21:57:21.996Z,19.40
2017-08-02T21:59:49.541Z,15.03
2017-08-02T22:02:17.925Z,18.93
2017-08-02T22:04:45.469Z,18.97
2017-08-02T22:07:23.930Z,19.33
2017-08-02T22:20:26.540Z,18.77
2017-08-02T22:22:54.081Z,16.00
2017-08-02T22:25:21.625Z,16.37
2017-08-02T22:27:49.192Z,15.03
2017-08-02T22:30:16.732Z,20.20
2017-08-02T22:32:44.273Z,19.30
2017-08-02T22:35:11.858Z,15.97
2017-08-02T22:37:39.403Z,17.57
2017-08-02T22:40:06.951Z,15.23
2017-08-02T22:42:34.561Z,14.93
2017-08-02T22:45:02.106Z,18.30
2017-08-02T22:47:30.042Z,14.70
2017-08-02T22:49:57.610Z,20.67
2017-08-02T22:52:25.157Z,18.10
2017-08-02T22:54:52.701Z,16.33
2017-08-02T22:57:20.310Z,17.43
2017-08-02T22:59:47.861Z,24.13
2017-08-02T23:02:15.407Z,14.77
2017-08-02T23:04:43.018Z,17.07
2017-08-02T23:07:11.332Z,18.13
2017-08-02T23:09:38.877Z,15.07
2017-08-02T23:12:06.448Z,16.97
2017-08-02T23:14:33.989Z,20.07
2017-08-02T23:17:01.532Z,14.70
2017-08-02T23:19:29.885Z,17.33
2017-08-02T23:21:57.449Z,15.33
2017-08-02T23:24:24.993Z,16.00
2017-08-02T23:26:52.614Z,19.67
2017-08-02T23:29:20.161Z,16.37
2017-08-02T23:31:47.708Z,19.40
2017-08-02T23:34:15.281Z,14.97
2017-08-02T23:36:43.600Z,22.70
2017-08-02T23:39:11.145Z,20.43
2017-08-02T23:41:38.713Z,19.67
2017-08-02T23:44:06.262Z,23.27
2017-08-02T23:46:33.808Z,22.97
2017-08-02T23:49:02.453Z,15.83
2017-08-02T23:51:30.003Z,19.53
2017-08-02T23:53:57.546Z,16.37
2017-08-02T23:56:25.119Z,17.00
2017-08-02T23:58:52.685Z,19.83
